sensor_id;sensor_type;location;lat;lon;timestamp;pressure;altitude;pressure_sealevel;temperature
28803;BMP280;15949;55.656;37.422;2024-02-23T02:24:03;99628.56;;;-2.97
28803;BMP280;15949;55.656;37.422;2024-02-23T02:29:08;99629.69;;;-2.93
28803;BMP280;15949;55.656;37.422;2024-02-23T02:34:14;99624.94;;;-3.01
28803;BMP280;15949;55.656;37.422;2024-02-23T02:39:20;99632.94;;;-2.97
28803;BMP280;15949;55.656;37.422;2024-02-23T02:44:26;99629.25;;;-3.01
28803;BMP280;15949;55.656;37.422;2024-02-23T02:49:39;99635.13;;;-3.01
28803;BMP280;15949;55.656;37.422;2024-02-23T02:54:45;99634.56;;;-3.03
28803;BMP280;15949;55.656;37.422;2024-02-23T02:59:51;99640.66;;;-3.04
28803;BMP280;15949;55.656;37.422;2024-02-23T03:04:57;99644.00;;;-3.03
28803;BMP280;15949;55.656;37.422;2024-02-23T03:10:11;99650.22;;;-2.99
28803;BMP280;15949;55.656;37.422;2024-02-23T03:15:17;99645.88;;;-2.99
28803;BMP280;15949;55.656;37.422;2024-02-23T03:20:23;99644.66;;;-2.96
28803;BMP280;15949;55.656;37.422;2024-02-23T03:25:29;99650.31;;;-2.94
28803;BMP280;15949;55.656;37.422;2024-02-23T03:30:34;99653.31;;;-2.97
28803;BMP280;15949;55.656;37.422;2024-02-23T03:35:43;99652.06;;;-2.95
28803;BMP280;15949;55.656;37.422;2024-02-23T03:40:52;99662.28;;;-2.95
28803;BMP280;15949;55.656;37.422;2024-02-23T03:45:59;99669.06;;;-3.00
28803;BMP280;15949;55.656;37.422;2024-02-23T03:51:05;99671.84;;;-3.02
28803;BMP280;15949;55.656;37.422;2024-02-23T03:56:14;99667.28;;;-3.00
28803;BMP280;15949;55.656;37.422;2024-02-23T04:01:22;99669.81;;;-3.00
28803;BMP280;15949;55.656;37.422;2024-02-23T04:06:28;99673.16;;;-2.99
28803;BMP280;15949;55.656;37.422;2024-02-23T04:11:34;99676.78;;;-2.95
28803;BMP280;15949;55.656;37.422;2024-02-23T04:16:42;99677.66;;;-2.90
28803;BMP280;15949;55.656;37.422;2024-02-23T04:21:48;99665.91;;;-2.91
28803;BMP280;15949;55.656;37.422;2024-02-23T04:26:54;99671.56;;;-2.89
28803;BMP280;15949;55.656;37.422;2024-02-23T04:32:01;99667.00;;;-2.87
28803;BMP280;15949;55.656;37.422;2024-02-23T04:37:07;99667.88;;;-2.81
28803;BMP280;15949;55.656;37.422;2024-02-23T04:42:12;99669.56;;;-2.87
28803;BMP280;15949;55.656;37.422;2024-02-23T04:47:18;99677.28;;;-2.82
28803;BMP280;15949;55.656;37.422;2024-02-23T04:52:24;99682.41;;;-2.82
28803;BMP280;15949;55.656;37.422;2024-02-23T04:57:31;99695.22;;;-2.77
28803;BMP280;15949;55.656;37.422;2024-02-23T05:02:37;99697.88;;;-2.72
28803;BMP280;15949;55.656;37.422;2024-02-23T05:07:43;99705.31;;;-2.70
28803;BMP280;15949;55.656;37.422;2024-02-23T05:12:49;99696.41;;;-2.67
28803;BMP280;15949;55.656;37.422;2024-02-23T05:17:55;99698.06;;;-2.61
28803;BMP280;15949;55.656;37.422;2024-02-23T05:23:01;99704.69;;;-2.60
28803;BMP280;15949;55.656;37.422;2024-02-23T07:34:05;99759.63;;;-1.74
28803;BMP280;15949;55.656;37.422;2024-02-23T07:39:11;99771.16;;;-1.72
28803;BMP280;15949;55.656;37.422;2024-02-23T07:44:17;99764.28;;;-1.71
28803;BMP280;15949;55.656;37.422;2024-02-23T07:49:23;99767.44;;;-1.64
28803;BMP280;15949;55.656;37.422;2024-02-23T11:37:49;99860.84;;;0.79
28803;BMP280;15949;55.656;37.422;2024-02-23T11:48:27;99871.22;;;0.99
28803;BMP280;15949;55.656;37.422;2024-02-23T11:53:32;99870.88;;;0.86
28803;BMP280;15949;55.656;37.422;2024-02-23T11:58:39;99884.44;;;0.71
28803;BMP280;15949;55.656;37.422;2024-02-23T12:03:45;99888.78;;;0.71
28803;BMP280;15949;55.656;37.422;2024-02-23T12:08:51;99885.13;;;0.62
28803;BMP280;15949;55.656;37.422;2024-02-23T12:13:58;99881.09;;;0.71
28803;BMP280;15949;55.656;37.422;2024-02-23T12:19:04;99874.44;;;0.75
28803;BMP280;15949;55.656;37.422;2024-02-23T12:24:10;99878.25;;;0.77
28803;BMP280;15949;55.656;37.422;2024-02-23T12:29:16;99870.09;;;0.80
28803;BMP280;15949;55.656;37.422;2024-02-23T12:34:22;99870.28;;;0.69
28803;BMP280;15949;55.656;37.422;2024-02-23T12:39:28;99883.38;;;0.77
28803;BMP280;15949;55.656;37.422;2024-02-23T12:44:33;99886.25;;;0.76
28803;BMP280;15949;55.656;37.422;2024-02-23T12:49:39;99891.88;;;0.78
28803;BMP280;15949;55.656;37.422;2024-02-23T12:54:45;99896.22;;;0.72
28803;BMP280;15949;55.656;37.422;2024-02-23T12:59:51;99886.72;;;0.73
28803;BMP280;15949;55.656;37.422;2024-02-23T13:04:56;99896.19;;;0.67
28803;BMP280;15949;55.656;37.422;2024-02-23T13:10:02;99899.50;;;0.63
28803;BMP280;15949;55.656;37.422;2024-02-23T13:15:11;99889.19;;;0.58
28803;BMP280;15949;55.656;37.422;2024-02-23T13:20:17;99892.50;;;0.53
28803;BMP280;15949;55.656;37.422;2024-02-23T13:25:23;99898.19;;;0.60
28803;BMP280;15949;55.656;37.422;2024-02-23T13:30:28;99896.16;;;0.62
28803;BMP280;15949;55.656;37.422;2024-02-23T13:35:34;99893.78;;;0.50
28803;BMP280;15949;55.656;37.422;2024-02-23T13:40:40;99901.94;;;0.42
28803;BMP280;15949;55.656;37.422;2024-02-23T13:45:52;99909.34;;;0.39
28803;BMP280;15949;55.656;37.422;2024-02-23T13:50:58;99908.28;;;0.35
28803;BMP280;15949;55.656;37.422;2024-02-23T13:56:08;99921.31;;;0.33
28803;BMP280;15949;55.656;37.422;2024-02-23T14:01:16;99916.44;;;0.32
28803;BMP280;15949;55.656;37.422;2024-02-23T14:06:22;99926.41;;;0.28
28803;BMP280;15949;55.656;37.422;2024-02-23T14:11:28;99920.47;;;0.23
28803;BMP280;15949;55.656;37.422;2024-02-23T14:16:34;99921.22;;;0.23
28803;BMP280;15949;55.656;37.422;2024-02-23T14:21:40;99923.56;;;0.25
28803;BMP280;15949;55.656;37.422;2024-02-23T14:26:46;99918.91;;;0.17
28803;BMP280;15949;55.656;37.422;2024-02-23T17:46:31;100009.06;;;0.14
28803;BMP280;15949;55.656;37.422;2024-02-23T17:51:36;100013.19;;;0.15
28803;BMP280;15949;55.656;37.422;2024-02-23T17:56:43;100018.31;;;0.15
28803;BMP280;15949;55.656;37.422;2024-02-23T18:01:49;100025.00;;;0.16
28803;BMP280;15949;55.656;37.422;2024-02-23T18:06:55;100013.72;;;0.17
28803;BMP280;15949;55.656;37.422;2024-02-23T18:12:00;100014.75;;;0.16
28803;BMP280;15949;55.656;37.422;2024-02-23T18:17:09;100022.44;;;0.16
28803;BMP280;15949;55.656;37.422;2024-02-23T18:22:15;100025.47;;;0.13
28803;BMP280;15949;55.656;37.422;2024-02-23T18:27:21;100032.13;;;0.14
28803;BMP280;15949;55.656;37.422;2024-02-23T18:32:27;100031.38;;;0.13
28803;BMP280;15949;55.656;37.422;2024-02-23T18:37:36;100034.16;;;0.12
28803;BMP280;15949;55.656;37.422;2024-02-23T18:42:41;100035.19;;;0.11
28803;BMP280;15949;55.656;37.422;2024-02-23T18:47:47;100043.88;;;0.09
28803;BMP280;15949;55.656;37.422;2024-02-23T18:53:15;100043.88;;;0.09
28803;BMP280;15949;55.656;37.422;2024-02-23T18:58:27;100034.03;;;0.01
28803;BMP280;15949;55.656;37.422;2024-02-23T19:03:40;100036.59;;;0.01
28803;BMP280;15949;55.656;37.422;2024-02-23T20:46:38;100102.16;;;-0.24
28803;BMP280;15949;55.656;37.422;2024-02-23T22:47:15;100224.22;;;-0.63
28803;BMP280;15949;55.656;37.422;2024-02-23T22:52:21;100226.53;;;-0.62
28803;BMP280;15949;55.656;37.422;2024-02-23T22:57:27;100226.53;;;-0.62
28803;BMP280;15949;55.656;37.422;2024-02-23T23:02:33;100228.78;;;-0.65
28803;BMP280;15949;55.656;37.422;2024-02-23T23:07:39;100221.47;;;-0.73
28803;BMP280;15949;55.656;37.422;2024-02-23T23:12:46;100222.94;;;-0.77
28803;BMP280;15949;55.656;37.422;2024-02-23T23:18:20;100230.34;;;-0.76
28803;BMP280;15949;55.656;37.422;2024-02-23T23:23:25;100230.59;;;-0.77
28803;BMP280;15949;55.656;37.422;2024-02-23T23:28:31;100237.25;;;-0.76
28803;BMP280;15949;55.656;37.422;2024-02-23T23:33:37;100234.16;;;-0.78
28803;BMP280;15949;55.656;37.422;2024-02-23T23:38:43;100233.16;;;-0.77
28803;BMP280;15949;55.656;37.422;2024-02-23T23:43:48;100222.38;;;-0.79
28803;BMP280;15949;55.656;37.422;2024-02-23T23:54:37;100223.44;;;-0.92
28803;BMP280;15949;55.656;37.422;2024-02-23T23:59:43;100224.22;;;-0.92
